Time;durP1;ratioP1;P1;durP2;ratioP2;P2;SDS_P1;SDS_P2;PMS_P1;PMS_P2;Temp;Humidity;BMP_temperature;BMP_pressure;BME280_temperature;BME280_humidity;BME280_pressure;Samples;Min_cycle;Max_cycle;Signal;HPM_P1;HPM_P2
2023/01/31 00:01:34;;;;;;;7.70;4.30;;;;;;;-1.36;68.95;98692.11;78163;1298;3050004;-58
2023/01/31 00:04:03;;;;;;;7.70;4.30;;;;;;;-1.30;68.87;98693.55;79415;1298;3013596;-60
2023/01/31 00:06:37;;;;;;;7.60;4.30;;;;;;;-1.33;68.89;98697.20;78184;1298;3026573;-61
2023/01/31 00:09:05;;;;;;;7.90;4.80;;;;;;;-1.35;68.97;98695.36;79317;1295;3011580;-59
2023/01/31 00:11:34;;;;;;;13.10;4.90;;;;;;;-1.36;68.69;98701.89;78347;1298;3052140;-58
2023/01/31 00:14:03;;;;;;;7.30;4.90;;;;;;;-1.43;68.95;98699.52;79332;1298;3012781;-57
2023/01/31 00:16:32;;;;;;;8.00;4.90;;;;;;;-1.55;69.00;98699.11;78771;1295;3011633;-60
2023/01/31 00:18:59;;;;;;;10.50;5.80;;;;;;;-1.65;69.62;98692.12;79508;1295;3013937;-59
2023/01/31 00:21:27;;;;;;;11.40;6.40;;;;;;;-1.51;69.16;98690.05;79394;1298;3013603;-59
2023/01/31 00:23:55;;;;;;;10.00;5.50;;;;;;;-1.48;69.42;98690.19;78285;1298;3052462;-58
2023/01/31 00:26:26;;;;;;;9.80;5.70;;;;;;;-1.53;68.93;98689.43;79426;1295;3013720;-59
2023/01/31 00:28:54;;;;;;;10.40;4.10;;;;;;;-1.66;69.49;98686.48;78212;1295;3056081;-59
2023/01/31 00:31:22;;;;;;;8.70;4.70;;;;;;;-1.49;68.88;98684.70;79367;1295;3013372;-61
2023/01/31 00:33:50;;;;;;;9.00;5.30;;;;;;;-1.58;69.41;98688.73;79382;1295;3011931;-58
2023/01/31 00:36:20;;;;;;;11.60;5.60;;;;;;;-1.57;69.65;98681.48;78266;1298;3053020;-59
2023/01/31 00:38:48;;;;;;;8.90;5.30;;;;;;;-1.55;69.23;98682.27;79536;1298;3011753;-61
2023/01/31 00:41:21;;;;;;;9.90;5.50;;;;;;;-1.55;69.14;98683.48;78949;1294;3011837;-59
2023/01/31 00:43:49;;;;;;;11.00;4.80;;;;;;;-1.57;68.95;98683.68;79512;1295;3011548;-61
2023/01/31 00:46:19;;;;;;;12.80;6.40;;;;;;;-1.51;69.01;98686.48;78296;1298;3056023;-59
2023/01/31 00:48:45;;;;;;;12.60;5.40;;;;;;;-1.54;69.15;98682.42;79485;1296;3013179;-61
2023/01/31 00:51:12;;;;;;;12.50;5.50;;;;;;;-1.51;69.21;98683.04;79504;1294;3011755;-61
2023/01/31 00:53:40;;;;;;;10.40;5.60;;;;;;;-1.61;69.26;98682.94;78254;1298;3052388;-59
2023/01/31 00:56:12;;;;;;;12.10;6.10;;;;;;;-1.62;68.93;98680.20;79440;1298;3020840;-58
2023/01/31 00:58:41;;;;;;;13.90;5.80;;;;;;;-1.59;68.07;98678.08;78215;1298;3051559;-59
2023/01/31 01:01:16;;;;;;;16.70;6.60;;;;;;;-1.49;68.05;98679.55;79492;1294;3015186;-60
2023/01/31 01:03:46;;;;;;;15.70;6.50;;;;;;;-1.38;67.20;98675.15;78190;1298;3052515;-58
2023/01/31 01:06:13;;;;;;;18.70;7.60;;;;;;;-1.54;67.79;98673.66;79507;1295;3013171;-60
2023/01/31 01:08:42;;;;;;;19.00;7.10;;;;;;;-1.44;66.98;98668.95;79476;1295;3012891;-60
2023/01/31 01:11:12;;;;;;;19.80;8.60;;;;;;;-1.31;65.92;98666.55;78037;1295;3069549;-59
2023/01/31 01:13:39;;;;;;;19.70;6.30;;;;;;;-1.38;65.66;98675.84;79500;1294;3013546;-60
2023/01/31 01:16:10;;;;;;;15.40;6.20;;;;;;;-1.25;65.36;98673.30;78912;1294;3011639;-57
2023/01/31 01:18:38;;;;;;;17.10;7.50;;;;;;;-1.21;64.97;98676.62;79481;1298;3011941;-61
2023/01/31 01:21:09;;;;;;;12.40;5.90;;;;;;;-1.29;64.55;98669.77;78952;1298;3011819;-59
2023/01/31 01:23:37;;;;;;;16.00;6.00;;;;;;;-1.41;65.06;98668.19;79294;1296;3011599;-60
2023/01/31 01:26:04;;;;;;;14.70;6.10;;;;;;;-1.46;65.29;98664.86;79509;1295;3013907;-57
2023/01/31 01:28:33;;;;;;;11.70;6.20;;;;;;;-1.49;64.74;98667.70;78065;1300;3069748;-58
2023/01/31 01:31:06;;;;;;;15.60;7.20;;;;;;;-1.39;64.93;98670.88;79502;1295;3011588;-58
2023/01/31 01:33:35;;;;;;;15.70;7.00;;;;;;;-1.36;64.72;98670.13;78249;1295;3055458;-58
2023/01/31 01:36:03;;;;;;;16.10;5.90;;;;;;;-1.31;64.78;98668.29;79425;1295;3013314;-61
2023/01/31 01:38:34;;;;;;;14.40;6.70;;;;;;;-1.43;65.01;98668.24;78918;1298;3011933;-57
2023/01/31 01:41:00;;;;;;;12.00;5.90;;;;;;;-1.36;65.41;98660.84;79474;1295;3012981;-60
2023/01/31 01:43:42;;;;;;;8.40;5.10;;;;;;;-1.35;65.72;98661.16;79504;1295;3011693;-59
2023/01/31 01:46:30;;;;;;;11.70;5.40;;;;;;;-1.37;65.73;98660.86;78230;1295;3069427;-60
2023/01/31 01:49:04;;;;;;;7.30;4.30;;;;;;;-1.25;65.51;98666.23;78193;1295;3052581;-58
2023/01/31 01:51:31;;;;;;;11.70;4.80;;;;;;;-1.20;65.41;98660.81;79452;1294;3011892;-59
2023/01/31 01:54:04;;;;;;;11.10;5.20;;;;;;;-1.30;66.30;98659.32;78241;1295;3048609;-59
2023/01/31 01:56:38;;;;;;;10.40;5.50;;;;;;;-1.41;66.88;98658.57;79296;1295;3011656;-60
2023/01/31 01:59:21;;;;;;;11.40;6.00;;;;;;;-1.33;66.86;98659.40;78062;1298;3049814;-59
2023/01/31 02:01:49;;;;;;;10.60;5.80;;;;;;;-1.23;67.16;98653.32;78218;1295;3052353;-59
2023/01/31 02:04:18;;;;;;;12.60;5.50;;;;;;;-1.26;66.91;98654.08;79325;1300;3019211;-62
2023/01/31 02:06:44;;;;;;;10.30;5.10;;;;;;;-1.16;66.61;98656.05;79423;1295;3013494;-61
2023/01/31 02:09:31;;;;;;;12.00;6.10;;;;;;;-1.19;66.64;98654.76;77998;1301;3057753;-58
2023/01/31 02:11:59;;;;;;;10.40;5.20;;;;;;;-1.06;66.38;98646.85;78200;1298;3049877;-59
2023/01/31 02:14:25;;;;;;;16.10;6.60;;;;;;;-1.13;66.68;98643.42;79258;1295;3013018;-59
2023/01/31 02:16:52;;;;;;;11.70;5.60;;;;;;;-1.17;66.96;98647.15;79233;1300;3011594;-62
2023/01/31 02:19:39;;;;;;;9.90;6.10;;;;;;;-1.08;66.79;98645.88;78177;1298;3027930;-59
2023/01/31 02:22:13;;;;;;;13.50;6.10;;;;;;;-1.16;66.92;98648.48;77986;1295;3068696;-62
2023/01/31 02:25:23;;;;;;;13.30;6.60;;;;;;;-1.04;67.00;98646.10;78782;1296;3013538;-61
2023/01/31 02:28:56;;;;;;;10.60;5.60;;;;;;;-1.13;67.11;98644.80;78233;1295;3052457;-62
2023/01/31 02:31:49;;;;;;;8.60;4.80;;;;;;;-0.97;66.56;98645.60;77754;1298;3056708;-60
2023/01/31 02:34:42;;;;;;;12.40;4.70;;;;;;;-0.94;66.46;98641.20;78186;1298;3049030;-62
2023/01/31 02:37:13;;;;;;;14.30;5.90;;;;;;;-0.94;66.02;98641.21;78201;1295;3053900;-59
2023/01/31 02:39:47;;;;;;;12.10;5.20;;;;;;;-0.98;66.31;98640.45;79384;1298;3011902;-58
2023/01/31 02:42:34;;;;;;;11.40;5.70;;;;;;;-0.89;65.90;98639.86;78206;1298;3052500;-59
2023/01/31 02:45:24;;;;;;;12.50;5.50;;;;;;;-0.92;65.30;98643.55;78202;1298;3052807;-60
2023/01/31 02:47:52;;;;;;;10.80;5.30;;;;;;;-0.92;65.61;98644.08;78221;1298;3069359;-60
2023/01/31 02:50:35;;;;;;;12.70;6.30;;;;;;;-1.01;65.98;98645.86;79439;1295;3013220;-61
2023/01/31 02:53:35;;;;;;;14.50;7.00;;;;;;;-1.01;66.47;98640.54;78164;1300;3049635;-60
2023/01/31 02:56:18;;;;;;;15.80;7.30;;;;;;;-0.88;65.82;98641.90;78073;1296;3053806;-60
2023/01/31 02:59:12;;;;;;;18.10;9.00;;;;;;;-0.83;65.73;98638.88;78114;1295;3050034;-60
2023/01/31 03:01:43;;;;;;;18.80;9.20;;;;;;;-0.87;66.04;98646.01;78237;1298;3052879;-60
2023/01/31 03:04:10;;;;;;;21.50;9.00;;;;;;;-0.78;66.00;98646.64;79345;1298;3013157;-62
2023/01/31 03:06:53;;;;;;;17.50;8.30;;;;;;;-0.78;66.11;98647.83;77991;1300;3026869;-60
2023/01/31 03:09:39;;;;;;;15.70;6.90;;;;;;;-0.83;66.42;98650.55;78014;1298;3052306;-64
2023/01/31 03:12:20;;;;;;;13.20;6.70;;;;;;;-0.85;66.66;98646.98;78111;1298;3057237;-60
2023/01/31 03:14:59;;;;;;;14.70;6.10;;;;;;;-0.94;67.35;98649.46;78046;1298;3050106;-61
2023/01/31 03:17:51;;;;;;;12.20;6.10;;;;;;;-0.97;67.82;98645.74;78156;1295;3053820;-58
2023/01/31 03:20:23;;;;;;;12.00;5.70;;;;;;;-0.90;67.60;98643.52;78007;1301;3050562;-60
2023/01/31 03:22:55;;;;;;;18.10;6.80;;;;;;;-0.90;67.08;98644.71;79280;1301;3012972;-60
2023/01/31 03:25:25;;;;;;;14.20;6.60;;;;;;;-0.91;67.33;98641.80;78194;1298;3051988;-60
2023/01/31 03:28:01;;;;;;;17.90;7.20;;;;;;;-0.89;67.60;98644.14;79284;1295;3011705;-60
2023/01/31 03:30:35;;;;;;;13.70;6.90;;;;;;;-0.83;67.90;98647.45;78230;1298;3051689;-60
2023/01/31 03:33:30;;;;;;;12.90;6.70;;;;;;;-0.77;67.03;98648.67;79246;1295;3011610;-61
2023/01/31 03:36:04;;;;;;;19.20;8.80;;;;;;;-0.75;67.13;98647.06;78178;1298;3050114;-59
2023/01/31 03:38:34;;;;;;;22.90;9.40;;;;;;;-0.77;67.15;98644.01;78790;1295;3011855;-60
2023/01/31 03:41:11;;;;;;;27.70;12.10;;;;;;;-0.76;67.28;98649.66;79379;1295;3016016;-60
2023/01/31 03:43:49;;;;;;;46.90;16.10;;;;;;;-0.84;67.77;98651.23;78218;1298;3055206;-60
2023/01/31 03:46:19;;;;;;;25.20;12.10;;;;;;;-0.93;68.12;98657.16;78052;1301;3052663;-59
2023/01/31 03:48:49;;;;;;;21.30;9.60;;;;;;;-0.87;67.95;98653.20;79315;1301;3011858;-60
2023/01/31 03:51:18;;;;;;;21.10;8.60;;;;;;;-0.92;68.13;98660.58;78030;1300;3051309;-59
2023/01/31 03:53:51;;;;;;;18.40;9.30;;;;;;;-1.01;68.31;98664.59;79492;1295;3011465;-59
2023/01/31 03:56:26;;;;;;;20.00;9.60;;;;;;;-1.15;68.96;98668.76;78114;1301;3048748;-60
2023/01/31 03:59:03;;;;;;;17.50;9.00;;;;;;;-1.40;69.93;98670.23;78933;1298;3011422;-61
2023/01/31 04:01:33;;;;;;;16.50;8.90;;;;;;;-1.39;70.45;98667.30;78008;1296;3051552;-61
2023/01/31 04:04:05;;;;;;;14.80;8.10;;;;;;;-1.27;70.29;98668.70;79372;1298;3013595;-60
2023/01/31 04:06:33;;;;;;;19.00;9.30;;;;;;;-1.22;70.33;98670.97;78051;1301;3051895;-60
2023/01/31 04:09:00;;;;;;;42.80;14.50;;;;;;;-1.28;70.36;98668.57;79290;1301;3013145;-61
2023/01/31 04:11:26;;;;;;;44.80;16.90;;;;;;;-1.57;70.90;98667.36;79394;1298;3012159;-60
2023/01/31 04:13:55;;;;;;;43.10;14.80;;;;;;;-1.41;70.75;98664.06;78047;1301;3026289;-61
2023/01/31 04:16:22;;;;;;;33.20;12.50;;;;;;;-1.43;70.77;98665.15;79382;1296;3013785;-59
2023/01/31 04:18:50;;;;;;;27.30;11.20;;;;;;;-1.32;70.57;98670.04;79393;1296;3011601;-62
2023/01/31 04:21:17;;;;;;;31.70;12.80;;;;;;;-1.43;70.76;98665.83;78155;1298;3052559;-58
2023/01/31 04:23:44;;;;;;;28.90;11.00;;;;;;;-1.45;70.63;98667.95;79481;1298;3013275;-60
2023/01/31 04:26:10;;;;;;;21.50;10.70;;;;;;;-1.54;71.07;98668.49;79391;1298;3011250;-61
2023/01/31 04:28:39;;;;;;;22.80;10.90;;;;;;;-1.42;71.27;98666.66;78146;1298;3028474;-62
2023/01/31 04:31:05;;;;;;;21.20;9.60;;;;;;;-1.31;70.65;98670.52;79459;1294;3013324;-60
2023/01/31 04:33:32;;;;;;;22.10;9.70;;;;;;;-1.44;70.26;98668.62;79392;1295;3012897;-60
2023/01/31 04:36:00;;;;;;;20.60;8.60;;;;;;;-1.42;70.47;98672.33;78263;1298;3028198;-60
2023/01/31 04:38:27;;;;;;;18.40;8.70;;;;;;;-1.32;69.91;98664.89;79422;1298;3012912;-60
2023/01/31 04:40:54;;;;;;;22.30;8.80;;;;;;;-1.28;70.28;98662.38;79420;1298;3011981;-61
2023/01/31 04:43:22;;;;;;;26.30;10.20;;;;;;;-1.27;70.19;98665.78;78176;1298;3057161;-60
2023/01/31 04:45:49;;;;;;;24.90;9.70;;;;;;;-1.23;70.58;98661.89;79520;1295;3013687;-62
2023/01/31 04:48:16;;;;;;;27.00;10.40;;;;;;;-1.13;70.34;98655.80;79403;1295;3011804;-61
2023/01/31 04:50:44;;;;;;;35.70;12.10;;;;;;;-1.05;69.79;98658.34;78233;1298;3053116;-61
2023/01/31 04:53:11;;;;;;;45.20;14.10;;;;;;;-1.10;69.75;98662.60;79499;1298;3012607;-60
2023/01/31 04:55:40;;;;;;;50.70;15.10;;;;;;;-1.06;69.92;98662.33;79458;1296;3011820;-60
2023/01/31 04:58:08;;;;;;;61.70;19.40;;;;;;;-1.01;69.62;98659.45;78202;1298;3057328;-60
2023/01/31 05:00:34;;;;;;;74.30;22.00;;;;;;;-0.92;69.64;98663.66;79421;1295;3014072;-60
2023/01/31 05:03:01;;;;;;;90.10;23.70;;;;;;;-0.86;69.13;98663.36;79396;1296;3011607;-59
2023/01/31 05:05:29;;;;;;;78.40;22.40;;;;;;;-0.82;69.11;98661.16;78240;1298;3026299;-60
2023/01/31 05:07:57;;;;;;;69.50;21.80;;;;;;;-0.84;68.72;98667.24;79486;1298;3014451;-58
2023/01/31 05:10:23;;;;;;;61.20;18.70;;;;;;;-0.99;69.25;98675.89;79369;1298;3013455;-60
2023/01/31 05:12:52;;;;;;;51.50;17.10;;;;;;;-0.96;69.72;98674.10;78196;1298;3056142;-63
2023/01/31 05:15:20;;;;;;;37.30;12.40;;;;;;;-0.91;69.44;98679.28;79434;1295;3013425;-60
2023/01/31 05:17:53;;;;;;;23.70;9.50;;;;;;;-0.84;69.03;98679.27;79412;1296;3013246;-58
2023/01/31 05:20:21;;;;;;;19.60;8.40;;;;;;;-0.90;69.02;98683.40;78118;1296;3053856;-60
2023/01/31 05:22:48;;;;;;;20.30;8.10;;;;;;;-0.94;70.07;98682.64;79292;1298;3013203;-60
2023/01/31 05:25:14;;;;;;;16.60;7.80;;;;;;;-1.03;69.24;98682.86;79227;1298;3012917;-62
2023/01/31 05:27:43;;;;;;;15.70;7.50;;;;;;;-1.10;69.67;98687.67;78130;1298;3027066;-60
2023/01/31 05:30:11;;;;;;;15.50;6.70;;;;;;;-0.99;69.82;98685.70;79421;1295;3011679;-61
2023/01/31 05:32:38;;;;;;;16.60;7.20;;;;;;;-0.94;69.35;98686.41;79340;1295;3011618;-59
2023/01/31 05:35:06;;;;;;;15.00;6.90;;;;;;;-1.08;69.84;98692.65;78061;1300;3051982;-59
2023/01/31 05:37:33;;;;;;;13.40;7.20;;;;;;;-1.08;69.53;98698.64;79446;1298;3018470;-62
2023/01/31 05:40:02;;;;;;;15.00;7.00;;;;;;;-1.16;69.64;98703.64;79387;1295;3011858;-59
2023/01/31 05:42:30;;;;;;;15.00;7.60;;;;;;;-1.06;68.99;98702.55;78137;1301;3057060;-62
2023/01/31 05:44:58;;;;;;;17.30;8.40;;;;;;;-1.03;68.99;98699.91;79352;1296;3012647;-61
2023/01/31 05:47:24;;;;;;;16.10;7.60;;;;;;;-0.95;69.44;98692.80;79440;1301;3013109;-63
2023/01/31 05:49:52;;;;;;;14.90;7.00;;;;;;;-0.84;69.05;98693.20;78314;1298;3052069;-59
2023/01/31 05:52:18;;;;;;;13.90;6.80;;;;;;;-0.86;69.10;98695.68;79294;1301;3013145;-59
2023/01/31 05:54:45;;;;;;;18.90;8.00;;;;;;;-0.87;68.63;98698.63;79319;1298;3011857;-61
2023/01/31 05:57:14;;;;;;;15.70;8.20;;;;;;;-0.85;69.04;98702.52;78050;1298;3028759;-61
2023/01/31 05:59:41;;;;;;;17.40;7.50;;;;;;;-0.85;68.56;98698.55;79318;1295;3013565;-60
2023/01/31 06:02:10;;;;;;;18.10;8.20;;;;;;;-0.78;68.46;98703.89;79372;1296;3013004;-62
2023/01/31 06:04:39;;;;;;;18.60;8.80;;;;;;;-0.70;68.35;98701.09;78266;1298;3050999;-62
2023/01/31 06:07:08;;;;;;;15.10;7.80;;;;;;;-0.70;67.72;98698.68;79340;1298;3011625;-60
2023/01/31 06:09:39;;;;;;;13.70;7.30;;;;;;;-0.71;67.69;98697.69;78111;1296;3070101;-60
2023/01/31 06:12:06;;;;;;;15.40;8.10;;;;;;;-0.70;67.67;98701.08;79302;1298;3014815;-61
2023/01/31 06:14:33;;;;;;;16.00;8.20;;;;;;;-0.56;67.51;98697.78;79450;1295;3011634;-61
2023/01/31 06:17:02;;;;;;;22.70;9.40;;;;;;;-0.61;67.74;98697.92;78035;1298;3052485;-59
2023/01/31 06:19:29;;;;;;;19.00;8.80;;;;;;;-0.61;67.76;98698.10;79391;1301;3013535;-61
2023/01/31 06:21:56;;;;;;;23.00;9.70;;;;;;;-0.61;67.68;98698.27;79377;1298;3011761;-60
2023/01/31 06:24:24;;;;;;;17.90;9.30;;;;;;;-0.71;67.74;98699.23;78169;1298;3070611;-62
2023/01/31 06:26:50;;;;;;;18.90;8.30;;;;;;;-0.83;68.11;98701.27;79504;1298;3014003;-61
2023/01/31 06:29:17;;;;;;;17.60;8.10;;;;;;;-0.86;68.39;98697.90;79243;1296;3011814;-61
2023/01/31 06:31:45;;;;;;;16.00;7.60;;;;;;;-0.72;68.42;98701.34;78171;1295;3026621;-60
2023/01/31 06:34:12;;;;;;;17.80;8.40;;;;;;;-0.72;68.78;98703.88;79389;1298;3012991;-61
2023/01/31 06:36:38;;;;;;;18.70;8.90;;;;;;;-0.53;68.04;98702.54;79415;1298;3011943;-63
2023/01/31 06:39:06;;;;;;;17.30;9.00;;;;;;;-0.50;67.58;98701.23;78147;1298;3028092;-63
2023/01/31 06:41:33;;;;;;;15.80;8.50;;;;;;;-0.44;67.66;98694.70;79451;1296;3018683;-61
2023/01/31 06:44:01;;;;;;;14.40;7.80;;;;;;;-0.44;67.45;98697.62;79336;1295;3011661;-62
2023/01/31 06:46:29;;;;;;;18.30;8.50;;;;;;;-0.35;67.54;98695.48;76710;1298;4854086;-62
2023/01/31 06:48:55;;;;;;;17.60;8.50;;;;;;;-0.33;67.71;98694.58;79256;1298;3013167;-60
2023/01/31 06:51:24;;;;;;;18.20;7.90;;;;;;;-0.18;67.26;98693.45;79491;1298;3013294;-63
2023/01/31 06:53:52;;;;;;;14.10;7.40;;;;;;;-0.18;67.22;98687.77;78100;1301;3069506;-63
2023/01/31 06:56:19;;;;;;;13.40;7.50;;;;;;;-0.10;66.93;98686.33;79499;1298;3018830;-61
2023/01/31 06:58:45;;;;;;;16.10;8.20;;;;;;;-0.01;67.03;98692.27;79469;1295;3013667;-61
2023/01/31 07:01:14;;;;;;;14.60;7.80;;;;;;;0.02;66.90;98698.38;78245;1301;3029253;-61
2023/01/31 07:03:40;;;;;;;18.00;8.40;;;;;;;-0.16;66.83;98703.36;79536;1295;3012904;-62
2023/01/31 07:06:08;;;;;;;14.20;7.90;;;;;;;-0.16;67.22;98704.41;79428;1298;3012244;-62
2023/01/31 07:08:35;;;;;;;14.70;7.90;;;;;;;-0.21;67.29;98703.34;78016;1295;3069345;-62
2023/01/31 11:13:08;;;;;;;14.20;6.90;;;;;;;0.35;71.59;98663.94;80102;1299;3011515;-63
2023/01/31 11:15:40;;;;;;;13.90;7.00;;;;;;;0.52;70.79;98665.97;77566;1299;3053616;-62
2023/01/31 11:18:07;;;;;;;16.00;7.60;;;;;;;0.62;70.56;98662.21;79162;1304;3011534;-62
2023/01/31 11:20:44;;;;;;;13.60;6.80;;;;;;;0.69;70.53;98664.56;78959;1299;3012847;-62
2023/01/31 11:23:14;;;;;;;13.50;6.90;;;;;;;0.79;70.15;98664.58;77952;1298;3068907;-61
2023/01/31 11:25:45;;;;;;;19.00;8.40;;;;;;;0.87;70.21;98661.92;78059;1304;3013234;-63
2023/01/31 11:28:37;;;;;;;18.00;8.50;;;;;;;0.94;69.95;98660.63;78029;1298;3055233;-61
2023/01/31 11:31:06;;;;;;;13.70;7.10;;;;;;;0.98;69.42;98656.70;78283;1301;3049788;-60
2023/01/31 11:33:40;;;;;;;21.60;8.40;;;;;;;1.02;69.40;98657.08;79267;1301;3012865;-61
2023/01/31 11:36:13;;;;;;;17.00;8.20;;;;;;;1.10;69.29;98655.08;78090;1301;3050523;-62
2023/01/31 11:38:39;;;;;;;18.70;9.20;;;;;;;1.11;69.13;98656.42;79293;1297;3011629;-62
2023/01/31 11:41:34;;;;;;;17.10;8.00;;;;;;;1.16;68.80;98656.09;77979;1303;3051309;-61
2023/01/31 11:44:12;;;;;;;12.70;7.10;;;;;;;1.19;68.26;98663.06;78045;1299;3070557;-61
2023/01/31 11:46:54;;;;;;;13.40;7.00;;;;;;;1.14;68.61;98657.19;78043;1298;3050682;-62
2023/01/31 11:49:27;;;;;;;13.50;7.00;;;;;;;1.22;68.54;98656.56;77996;1298;3056877;-63
2023/01/31 11:51:55;;;;;;;15.50;8.50;;;;;;;1.33;68.45;98658.42;79314;1297;3011584;-62
2023/01/31 11:54:26;;;;;;;15.70;7.70;;;;;;;1.25;68.58;98659.73;78192;1301;3052186;-62
2023/01/31 11:56:52;;;;;;;13.30;6.90;;;;;;;1.18;68.55;98661.35;79313;1299;3011637;-59
2023/01/31 11:59:20;;;;;;;13.00;6.40;;;;;;;1.16;68.90;98661.41;79163;1298;3011657;-60
2023/01/31 12:01:50;;;;;;;15.60;7.10;;;;;;;1.13;68.97;98659.27;78136;1298;3068694;-61
2023/01/31 12:04:22;;;;;;;13.80;7.20;;;;;;;1.16;68.90;98656.94;79327;1299;3013552;-62
2023/01/31 12:06:58;;;;;;;17.00;7.40;;;;;;;1.20;68.78;98661.63;78274;1298;3055301;-61
2023/01/31 12:09:28;;;;;;;16.10;7.20;;;;;;;1.19;68.87;98657.54;78098;1301;3050016;-62
2023/01/31 12:12:01;;;;;;;19.10;8.60;;;;;;;1.25;68.43;98658.86;79389;1298;3013523;-61
2023/01/31 12:14:39;;;;;;;;;;;;;;;1.28;68.53;98654.97;78153;1299;3049132;-61
2023/01/31 12:17:12;;;;;;;13.60;7.30;;;;;;;1.17;68.85;98658.96;78072;1301;3053090;-61
2023/01/31 12:19:58;;;;;;;16.80;8.10;;;;;;;1.09;69.43;98659.59;79426;1296;3011567;-63
2023/01/31 12:22:36;;;;;;;16.90;8.20;;;;;;;1.03;69.22;98661.52;78225;1298;3069452;-63
2023/01/31 12:25:27;;;;;;;19.40;8.90;;;;;;;0.91;69.52;98667.62;78190;1295;3050590;-62
2023/01/31 12:28:08;;;;;;;18.40;8.20;;;;;;;0.88;69.40;98672.03;78033;1300;3056751;-61
2023/01/31 12:31:02;;;;;;;15.30;8.20;;;;;;;0.90;69.39;98670.43;78316;1300;3049161;-63
2023/01/31 12:33:43;;;;;;;15.80;7.80;;;;;;;0.98;69.16;98676.52;78197;1300;3052943;-62
2023/01/31 12:36:21;;;;;;;20.40;8.60;;;;;;;0.90;69.52;98676.63;78104;1295;3049610;-61
2023/01/31 12:38:56;;;;;;;17.30;8.30;;;;;;;0.93;69.45;98684.46;78104;1300;3053281;-62
2023/01/31 12:41:42;;;;;;;15.00;7.70;;;;;;;0.83;70.07;98682.55;78184;1300;3051247;-62
2023/01/31 12:44:33;;;;;;;18.00;8.80;;;;;;;0.67;69.64;98686.53;78139;1301;3069540;-62
2023/01/31 12:47:16;;;;;;;20.00;9.70;;;;;;;0.70;69.98;98683.34;78119;1301;3050613;-63
2023/01/31 12:50:19;;;;;;;16.90;9.10;;;;;;;0.78;69.90;98687.21;78050;1299;3055731;-62
2023/01/31 12:52:59;;;;;;;23.20;9.70;;;;;;;0.78;69.85;98683.73;78108;1300;3049497;-62
2023/01/31 12:55:35;;;;;;;20.60;9.30;;;;;;;0.81;69.93;98684.16;78270;1295;3053642;-62
2023/01/31 12:58:17;;;;;;;23.70;10.20;;;;;;;0.88;69.57;98681.69;78268;1295;3049425;-61
2023/01/31 13:00:58;;;;;;;22.10;10.90;;;;;;;0.84;69.61;98678.53;78191;1300;3051739;-63
2023/01/31 13:03:44;;;;;;;28.60;11.70;;;;;;;0.65;70.12;98678.14;78037;1300;3052334;-62
2023/01/31 13:06:18;;;;;;;33.40;13.00;;;;;;;0.49;70.74;98688.85;78171;1300;3070376;-62
2023/01/31 13:08:56;;;;;;;31.20;14.30;;;;;;;0.56;71.07;98686.36;78070;1300;3051563;-61
2023/01/31 13:11:26;;;;;;;33.60;14.70;;;;;;;0.48;71.34;98688.88;79326;1301;3012017;-62
2023/01/31 13:14:03;;;;;;;31.30;14.00;;;;;;;0.40;72.72;98686.02;78470;1298;3048312;-63
2023/01/31 13:16:34;;;;;;;34.30;14.90;;;;;;;0.48;72.65;98685.57;78130;1301;3052654;-62
2023/01/31 13:19:02;;;;;;;30.70;12.80;;;;;;;0.52;72.86;98686.34;79494;1295;3013319;-61
2023/01/31 13:21:35;;;;;;;23.10;11.30;;;;;;;0.51;72.22;98687.71;78433;1295;3025771;-63
2023/01/31 13:24:05;;;;;;;32.60;13.10;;;;;;;0.47;72.75;98684.59;79548;1298;3013208;-62
2023/01/31 13:26:45;;;;;;;26.50;11.70;;;;;;;0.47;73.21;98682.69;78345;1295;3067832;-63
2023/01/31 13:29:43;;;;;;;30.70;14.60;;;;;;;0.40;73.25;98688.59;78011;1296;3051094;-61
2023/01/31 13:32:25;;;;;;;26.00;10.90;;;;;;;0.29;73.94;98688.59;77703;1306;3056597;-63
2023/01/31 13:35:04;;;;;;;27.80;12.60;;;;;;;0.37;73.60;98686.96;78111;1298;3049250;-61
2023/01/31 13:37:35;;;;;;;19.80;10.60;;;;;;;0.31;74.43;98693.86;78755;1298;3012769;-61
2023/01/31 13:40:23;;;;;;;25.60;12.00;;;;;;;0.26;74.64;98691.10;79380;1298;3013381;-63
2023/01/31 13:42:52;;;;;;;22.60;10.40;;;;;;;0.35;74.50;98697.19;78166;1298;3050576;-61
2023/01/31 13:45:27;;;;;;;22.30;11.40;;;;;;;0.39;74.53;98693.81;79455;1295;3011619;-61
2023/01/31 13:48:15;;;;;;;27.50;11.60;;;;;;;0.29;74.42;98694.27;78157;1295;3053199;-62
2023/01/31 13:50:59;;;;;;;24.30;11.10;;;;;;;0.31;74.88;98691.27;78221;1298;3069233;-64
2023/01/31 13:53:35;;;;;;;18.50;9.90;;;;;;;0.40;74.42;98690.50;78382;1295;3051314;-61
2023/01/31 13:56:04;;;;;;;21.60;10.80;;;;;;;0.20;75.29;98691.63;78189;1295;3057381;-57
2023/01/31 13:58:30;;;;;;;17.80;7.60;;;;;;;0.37;75.11;98688.52;79379;1294;3013619;-58
2023/01/31 14:01:04;;;;;;;18.30;8.10;;;;;;;0.89;74.10;98688.02;79257;1295;3012327;-59
2023/01/31 14:04:16;;;;;;;15.80;7.70;;;;;;;1.80;71.44;98688.27;78139;1298;3052794;-62
2023/01/31 14:06:56;;;;;;;22.60;8.90;;;;;;;1.91;69.83;98688.06;78111;1298;3053225;-63
2023/01/31 14:09:35;;;;;;;18.40;8.60;;;;;;;1.85;70.28;98684.12;78125;1295;3069712;-63
2023/01/31 14:12:06;;;;;;;23.40;10.20;;;;;;;1.59;70.25;98684.20;78064;1300;3050892;-63
2023/01/31 14:14:46;;;;;;;20.80;9.80;;;;;;;1.39;71.43;98687.71;78226;1298;3056531;-64
2023/01/31 14:17:19;;;;;;;20.40;10.10;;;;;;;1.23;72.05;98687.21;79390;1295;3012799;-64
2023/01/31 14:19:50;;;;;;;20.60;9.70;;;;;;;1.07;72.47;98682.80;78208;1295;3049884;-65
2023/01/31 14:22:25;;;;;;;19.40;9.30;;;;;;;0.96;73.23;98687.11;79519;1295;3013307;-64
2023/01/31 14:24:54;;;;;;;20.90;10.60;;;;;;;0.66;73.98;98684.14;78233;1298;3054327;-64
2023/01/31 14:27:28;;;;;;;20.40;10.00;;;;;;;0.67;74.45;98686.16;79414;1295;3011676;-68
2023/01/31 14:30:05;;;;;;;19.10;9.80;;;;;;;0.64;74.63;98685.60;78488;1295;3052777;-64
2023/01/31 14:33:12;;;;;;;19.40;9.30;;;;;;;0.65;75.33;98687.11;78295;1295;3057037;-66
2023/01/31 14:36:34;;;;;;;22.20;10.10;;;;;;;0.56;75.39;98690.15;78280;1298;3049759;-64
2023/01/31 14:39:19;;;;;;;19.10;8.90;;;;;;;0.58;76.16;98691.83;77609;1302;3054579;-64
2023/01/31 14:42:13;;;;;;;22.90;10.20;;;;;;;0.59;75.62;98691.79;78263;1298;3050455;-63
2023/01/31 14:44:47;;;;;;;19.10;10.10;;;;;;;0.54;75.97;98695.91;78238;1298;3053817;-63
2023/01/31 14:47:26;;;;;;;19.60;10.30;;;;;;;0.38;77.01;98698.48;79493;1296;3011609;-64
2023/01/31 14:50:03;;;;;;;25.20;11.40;;;;;;;0.44;76.42;98697.41;78171;1296;3069065;-64
2023/01/31 14:52:31;;;;;;;24.70;10.80;;;;;;;0.44;76.47;98697.10;78224;1295;3050489;-63
2023/01/31 14:55:19;;;;;;;24.20;11.00;;;;;;;0.36;77.31;98699.59;79409;1295;3013247;-68
2023/01/31 14:57:49;;;;;;;22.90;11.60;;;;;;;0.31;77.61;98699.73;78018;1298;3053646;-64
2023/01/31 15:00:19;;;;;;;20.20;9.20;;;;;;;0.27;77.99;98696.73;79591;1296;3013202;-64
2023/01/31 15:02:55;;;;;;;22.20;8.80;;;;;;;0.93;77.44;98698.93;78026;1301;3054732;-64
2023/01/31 15:05:29;;;;;;;17.80;8.70;;;;;;;1.77;74.25;98699.11;78301;1299;3053193;-64
2023/01/31 15:08:00;;;;;;;25.10;10.00;;;;;;;2.02;73.07;98701.65;79382;1295;3011506;-65
2023/01/31 15:11:03;;;;;;;27.30;10.70;;;;;;;1.86;72.91;98702.74;78488;1296;3051374;-63
2023/01/31 15:13:31;;;;;;;25.20;10.40;;;;;;;1.65;73.58;98703.17;78260;1296;3056150;-64
2023/01/31 15:15:58;;;;;;;29.00;10.60;;;;;;;1.36;74.24;98710.92;79442;1295;3013332;-64
2023/01/31 15:18:25;;;;;;;20.90;10.20;;;;;;;1.23;74.70;98706.89;79323;1296;3011622;-64
2023/01/31 15:20:58;;;;;;;22.40;9.50;;;;;;;1.03;75.22;98709.64;78085;1295;3028967;-63
2023/01/31 15:23:27;;;;;;;20.80;8.70;;;;;;;0.89;76.03;98706.84;79433;1300;3011546;-65
2023/01/31 15:25:55;;;;;;;17.30;8.50;;;;;;;0.75;76.28;98705.05;78322;1298;3069780;-64
2023/01/31 15:28:27;;;;;;;17.10;8.30;;;;;;;0.69;77.21;98706.09;79389;1296;3013809;-64
2023/01/31 15:30:56;;;;;;;18.60;8.50;;;;;;;0.58;77.82;98707.48;78173;1298;3049487;-64
2023/01/31 15:33:28;;;;;;;19.20;8.50;;;;;;;0.51;77.87;98707.71;79329;1296;3013130;-64
2023/01/31 15:36:26;;;;;;;21.20;9.80;;;;;;;0.47;78.25;98708.36;78319;1295;3049258;-66
2023/01/31 15:38:56;;;;;;;16.10;7.90;;;;;;;0.43;78.92;98708.98;78327;1298;3053256;-64
2023/01/31 15:41:24;;;;;;;17.10;8.30;;;;;;;0.43;78.92;98709.70;79747;1295;3011468;-64
2023/01/31 15:43:54;;;;;;;19.90;8.20;;;;;;;0.29;79.39;98708.24;78210;1295;3027087;-65